sensor_id;sensor_type;location;lat;lon;timestamp;pressure;altitude;pressure_sealevel;temperature;humidity
65800;BME280;52544;48.116;11.660;2022-12-10T00:01:54;94303.31;;;0.26;100.00
65800;BME280;52544;48.116;11.660;2022-12-10T00:04:20;94299.78;;;0.27;100.00
65800;BME280;52544;48.116;11.660;2022-12-10T00:06:46;94302.38;;;0.27;100.00
65800;BME280;52544;48.116;11.660;2022-12-10T00:09:13;94303.69;;;0.19;100.00
65800;BME280;52544;48.116;11.660;2022-12-10T00:11:40;94302.97;;;0.17;100.00
65800;BME280;52544;48.116;11.660;2022-12-10T00:14:05;94307.97;;;0.20;100.00
65800;BME280;52544;48.116;11.660;2022-12-10T00:16:32;94304.44;;;0.21;100.00
65800;BME280;52544;48.116;11.660;2022-12-10T00:18:59;94305.56;;;0.17;100.00
65800;BME280;52544;48.116;11.660;2022-12-10T00:21:30;94309.53;;;0.23;100.00
65800;BME280;52544;48.116;11.660;2022-12-10T00:23:56;94312.03;;;0.24;100.00
65800;BME280;52544;48.116;11.660;2022-12-10T00:26:25;94311.84;;;0.28;100.00
65800;BME280;52544;48.116;11.660;2022-12-10T00:28:51;94303.00;;;0.30;100.00
65800;BME280;52544;48.116;11.660;2022-12-10T00:31:23;94304.66;;;0.31;100.00
65800;BME280;52544;48.116;11.660;2022-12-10T00:33:49;94296.03;;;0.31;100.00
65800;BME280;52544;48.116;11.660;2022-12-10T00:36:20;94296.03;;;0.31;100.00
65800;BME280;52544;48.116;11.660;2022-12-10T00:38:47;94301.25;;;0.31;100.00
65800;BME280;52544;48.116;11.660;2022-12-10T00:41:13;94305.38;;;0.33;100.00
65800;BME280;52544;48.116;11.660;2022-12-10T00:43:39;94307.91;;;0.35;100.00
65800;BME280;52544;48.116;11.660;2022-12-10T00:46:05;94305.19;;;0.36;100.00
65800;BME280;52544;48.116;11.660;2022-12-10T00:48:31;94308.75;;;0.35;100.00
65800;BME280;52544;48.116;11.660;2022-12-10T00:51:14;94316.84;;;0.31;100.00
65800;BME280;52544;48.116;11.660;2022-12-10T00:53:41;94314.97;;;0.33;100.00
65800;BME280;52544;48.116;11.660;2022-12-10T00:56:08;94319.97;;;0.36;100.00
65800;BME280;52544;48.116;11.660;2022-12-10T00:58:36;94328.50;;;0.38;100.00
65800;BME280;52544;48.116;11.660;2022-12-10T01:01:12;94326.66;;;0.40;100.00
65800;BME280;52544;48.116;11.660;2022-12-10T01:03:39;94331.03;;;0.39;100.00
65800;BME280;52544;48.116;11.660;2022-12-10T01:06:15;94335.59;;;0.36;100.00
65800;BME280;52544;48.116;11.660;2022-12-10T01:08:43;94334.00;;;0.33;100.00
65800;BME280;52544;48.116;11.660;2022-12-10T01:11:09;94335.59;;;0.36;100.00
65800;BME280;52544;48.116;11.660;2022-12-10T01:13:35;94331.22;;;0.36;100.00
65800;BME280;52544;48.116;11.660;2022-12-10T01:16:02;94330.19;;;0.39;100.00
65800;BME280;52544;48.116;11.660;2022-12-10T01:18:28;94337.91;;;0.40;100.00
65800;BME280;52544;48.116;11.660;2022-12-10T01:20:53;94339.66;;;0.40;100.00
65800;BME280;52544;48.116;11.660;2022-12-10T01:23:19;94331.03;;;0.39;100.00
65800;BME280;52544;48.116;11.660;2022-12-10T01:25:44;94324.06;;;0.40;100.00
65800;BME280;52544;48.116;11.660;2022-12-10T01:28:09;94325.59;;;0.42;100.00
65800;BME280;52544;48.116;11.660;2022-12-10T01:30:35;94321.03;;;0.46;100.00
65800;BME280;52544;48.116;11.660;2022-12-10T01:33:00;94324.69;;;0.43;100.00
65800;BME280;52544;48.116;11.660;2022-12-10T01:35:26;94324.78;;;0.42;100.00
65800;BME280;52544;48.116;11.660;2022-12-10T01:37:51;94323.94;;;0.41;100.00
65800;BME280;52544;48.116;11.660;2022-12-10T01:40:16;94325.81;;;0.39;100.00
65800;BME280;52544;48.116;11.660;2022-12-10T01:42:42;94328.50;;;0.38;100.00
65800;BME280;52544;48.116;11.660;2022-12-10T01:45:10;94328.50;;;0.38;100.00
65800;BME280;52544;48.116;11.660;2022-12-10T01:47:37;94337.25;;;0.37;100.00
65800;BME280;52544;48.116;11.660;2022-12-10T01:50:03;94341.75;;;0.35;100.00
65800;BME280;52544;48.116;11.660;2022-12-10T01:52:29;94346.00;;;0.36;100.00
65800;BME280;52544;48.116;11.660;2022-12-10T01:54:55;94360.03;;;0.33;100.00
65800;BME280;52544;48.116;11.660;2022-12-10T01:57:23;94352.16;;;0.35;100.00
65800;BME280;52544;48.116;11.660;2022-12-10T01:59:52;94359.97;;;0.35;100.00
65800;BME280;52544;48.116;11.660;2022-12-10T02:02:42;94352.03;;;0.36;100.00
65800;BME280;52544;48.116;11.660;2022-12-10T02:13:11;94359.63;;;0.27;100.00
65800;BME280;52544;48.116;11.660;2022-12-10T02:18:45;94358.97;;;0.23;100.00
65800;BME280;52544;48.116;11.660;2022-12-10T02:21:19;94351.81;;;0.27;100.00
65800;BME280;52544;48.116;11.660;2022-12-10T02:23:59;94350.16;;;0.26;100.00
65800;BME280;52544;48.116;11.660;2022-12-10T02:26:33;94356.38;;;0.23;100.00
65800;BME280;52544;48.116;11.660;2022-12-10T02:29:17;94337.03;;;0.27;100.00
65800;BME280;52544;48.116;11.660;2022-12-10T02:31:46;94336.28;;;0.25;100.00
65800;BME280;52544;48.116;11.660;2022-12-10T02:34:14;94342.41;;;0.24;100.00
65800;BME280;52544;48.116;11.660;2022-12-10T02:36:43;94340.13;;;0.19;100.00
65800;BME280;52544;48.116;11.660;2022-12-10T02:39:12;94337.84;;;0.28;100.00
65800;BME280;52544;48.116;11.660;2022-12-10T02:41:41;94341.59;;;0.23;100.00
65800;BME280;52544;48.116;11.660;2022-12-10T02:44:10;94333.16;;;0.20;100.00
65800;BME280;52544;48.116;11.660;2022-12-10T02:46:38;94333.06;;;0.21;100.00
65800;BME280;52544;48.116;11.660;2022-12-10T02:49:06;94333.16;;;0.20;100.00
65800;BME280;52544;48.116;11.660;2022-12-10T02:51:32;94336.56;;;0.20;100.00
65800;BME280;52544;48.116;11.660;2022-12-10T02:54:01;94337.53;;;0.19;100.00
65800;BME280;52544;48.116;11.660;2022-12-10T02:56:33;94337.22;;;0.24;100.00
65800;BME280;52544;48.116;11.660;2022-12-10T02:59:38;94331.00;;;0.27;100.00
65800;BME280;52544;48.116;11.660;2022-12-10T03:07:15;94323.38;;;0.23;100.00
65800;BME280;52544;48.116;11.660;2022-12-10T03:09:51;94321.31;;;0.29;100.00
65800;BME280;52544;48.116;11.660;2022-12-10T03:12:29;94322.97;;;0.30;100.00
65800;BME280;52544;48.116;11.660;2022-12-10T03:14:59;94322.59;;;0.36;100.00
65800;BME280;52544;48.116;11.660;2022-12-10T03:17:28;94319.66;;;0.28;100.00
65800;BME280;52544;48.116;11.660;2022-12-10T03:19:55;94317.75;;;0.30;100.00
65800;BME280;52544;48.116;11.660;2022-12-10T03:22:21;94322.88;;;0.31;100.00
65800;BME280;52544;48.116;11.660;2022-12-10T03:24:47;94326.44;;;0.30;100.00
65800;BME280;52544;48.116;11.660;2022-12-10T03:27:15;94321.00;;;0.33;100.00
65800;BME280;52544;48.116;11.660;2022-12-10T03:29:53;94320.28;;;0.31;100.00
65800;BME280;52544;48.116;11.660;2022-12-10T03:32:23;94318.50;;;0.32;100.00
65800;BME280;52544;48.116;11.660;2022-12-10T03:34:51;94320.28;;;0.31;100.00
65800;BME280;52544;48.116;11.660;2022-12-10T03:37:19;94316.03;;;0.30;100.00
65800;BME280;52544;48.116;11.660;2022-12-10T03:39:45;94321.13;;;0.32;100.00
65800;BME280;52544;48.116;11.660;2022-12-10T03:42:11;94324.53;;;0.32;100.00
65800;BME280;52544;48.116;11.660;2022-12-10T03:44:38;94319.44;;;0.31;100.00
65800;BME280;52544;48.116;11.660;2022-12-10T03:47:08;94319.53;;;0.29;100.00
65800;BME280;52544;48.116;11.660;2022-12-10T03:49:35;94314.44;;;0.28;100.00
65800;BME280;52544;48.116;11.660;2022-12-10T03:52:00;94322.13;;;0.29;100.00
65800;BME280;52544;48.116;11.660;2022-12-10T03:54:26;94320.38;;;0.30;100.00
65800;BME280;52544;48.116;11.660;2022-12-10T03:56:51;94326.31;;;0.32;100.00
65800;BME280;52544;48.116;11.660;2022-12-10T03:59:17;94322.97;;;0.30;100.00
65800;BME280;52544;48.116;11.660;2022-12-10T04:01:43;94317.03;;;0.28;100.00
65800;BME280;52544;48.116;11.660;2022-12-10T04:04:09;94315.38;;;0.27;100.00
65800;BME280;52544;48.116;11.660;2022-12-10T04:06:37;94319.75;;;0.26;100.00
65800;BME280;52544;48.116;11.660;2022-12-10T04:09:03;94324.84;;;0.28;100.00
65800;BME280;52544;48.116;11.660;2022-12-10T04:11:28;94321.53;;;0.26;100.00
65800;BME280;52544;48.116;11.660;2022-12-10T04:13:54;94317.22;;;0.24;100.00
65800;BME280;52544;48.116;11.660;2022-12-10T04:16:38;94321.59;;;0.24;100.00
65800;BME280;52544;48.116;11.660;2022-12-10T04:19:12;94341.47;;;0.25;100.00
65800;BME280;52544;48.116;11.660;2022-12-10T04:21:39;94336.91;;;0.29;100.00
65800;BME280;52544;48.116;11.660;2022-12-10T04:24:26;94338.06;;;0.24;100.00
65800;BME280;52544;48.116;11.660;2022-12-10T04:27:23;94338.16;;;0.23;100.00
65800;BME280;52544;48.116;11.660;2022-12-10T04:29:49;94332.13;;;0.22;100.00
65800;BME280;52544;48.116;11.660;2022-12-10T04:32:15;94329.00;;;0.17;100.00
65800;BME280;52544;48.116;11.660;2022-12-10T04:34:40;94324.50;;;0.19;100.00
65800;BME280;52544;48.116;11.660;2022-12-10T04:37:06;94323.50;;;0.22;100.00
65800;BME280;52544;48.116;11.660;2022-12-10T04:39:31;94323.69;;;0.19;100.00
65800;BME280;52544;48.116;11.660;2022-12-10T04:41:57;94335.56;;;0.23;100.00
65800;BME280;52544;48.116;11.660;2022-12-10T04:44:23;94334.72;;;0.22;100.00
65800;BME280;52544;48.116;11.660;2022-12-10T04:46:49;94333.97;;;0.20;100.00
65800;BME280;52544;48.116;11.660;2022-12-10T04:49:15;94337.41;;;0.21;100.00
65800;BME280;52544;48.116;11.660;2022-12-10T04:51:41;94338.34;;;0.20;100.00
65800;BME280;52544;48.116;11.660;2022-12-10T04:54:06;94340.41;;;0.15;100.00
65800;BME280;52544;48.116;11.660;2022-12-10T04:56:32;94342.00;;;0.17;100.00
65800;BME280;52544;48.116;11.660;2022-12-10T04:58:58;94337.63;;;0.18;100.00
65800;BME280;52544;48.116;11.660;2022-12-10T05:01:24;94337.31;;;0.22;100.00
65800;BME280;52544;48.116;11.660;2022-12-10T05:03:50;94339.94;;;0.22;100.00
65800;BME280;52544;48.116;11.660;2022-12-10T05:06:17;94328.78;;;0.20;100.00
65800;BME280;52544;48.116;11.660;2022-12-10T05:08:43;94335.56;;;0.23;100.00
65800;BME280;52544;48.116;11.660;2022-12-10T05:11:14;94332.31;;;0.19;100.00
65800;BME280;52544;48.116;11.660;2022-12-10T05:13:41;94328.25;;;0.15;100.00
65800;BME280;52544;48.116;11.660;2022-12-10T05:16:08;94339.06;;;0.09;100.00
65800;BME280;52544;48.116;11.660;2022-12-10T05:18:34;94342.56;;;0.08;100.00
65800;BME280;52544;48.116;11.660;2022-12-10T05:21:00;94342.56;;;0.08;100.00
65800;BME280;52544;48.116;11.660;2022-12-10T05:23:26;94337.78;;;0.02;100.00
65800;BME280;52544;48.116;11.660;2022-12-10T05:28:27;94337.38;;;0.08;100.00
65800;BME280;52544;48.116;11.660;2022-12-10T05:30:52;94333.84;;;0.09;100.00
65800;BME280;52544;48.116;11.660;2022-12-10T05:33:17;94341.66;;;0.09;100.00
65800;BME280;52544;48.116;11.660;2022-12-10T05:35:43;94337.38;;;0.08;100.00
65800;BME280;52544;48.116;11.660;2022-12-10T05:38:08;94331.03;;;0.12;100.00
65800;BME280;52544;48.116;11.660;2022-12-10T05:40:38;94338.13;;;0.10;100.00
65800;BME280;52544;48.116;11.660;2022-12-10T05:43:03;94344.03;;;0.12;100.00
65800;BME280;52544;48.116;11.660;2022-12-10T05:45:31;94340.59;;;0.12;100.00
65800;BME280;52544;48.116;11.660;2022-12-10T05:47:56;94341.56;;;0.11;100.00
65800;BME280;52544;48.116;11.660;2022-12-10T05:50:22;94346.84;;;0.09;100.00
65800;BME280;52544;48.116;11.660;2022-12-10T05:52:50;94348.72;;;0.07;100.00
65800;BME280;52544;48.116;11.660;2022-12-10T05:55:15;94351.97;;;0.11;100.00
65800;BME280;52544;48.116;11.660;2022-12-10T05:57:41;94344.97;;;0.11;100.00
65800;BME280;52544;48.116;11.660;2022-12-10T06:00:07;94359.03;;;0.09;100.00
65800;BME280;52544;48.116;11.660;2022-12-10T06:02:33;94353.38;;;0.02;100.00
65800;BME280;52544;48.116;11.660;2022-12-10T06:04:58;94366.72;;;0.10;100.00
65800;BME280;52544;48.116;11.660;2022-12-10T06:07:24;94359.03;;;0.09;100.00
65800;BME280;52544;48.116;11.660;2022-12-10T06:09:49;94357.34;;;0.08;100.00
65800;BME280;52544;48.116;11.660;2022-12-10T06:12:15;94363.38;;;0.08;100.00
65800;BME280;52544;48.116;11.660;2022-12-10T06:14:40;94364.13;;;0.10;100.00
65800;BME280;52544;48.116;11.660;2022-12-10T06:17:06;94358.00;;;0.11;100.00
65800;BME280;52544;48.116;11.660;2022-12-10T06:19:31;94360.50;;;0.13;100.00
65800;BME280;52544;48.116;11.660;2022-12-10T06:21:56;94357.09;;;-0.02;100.00
65800;BME280;52544;48.116;11.660;2022-12-10T06:24:23;94360.25;;;0.03;100.00
65800;BME280;52544;48.116;11.660;2022-12-10T06:26:48;94365.25;;;0.06;100.00
65800;BME280;52544;48.116;11.660;2022-12-10T06:29:14;94360.06;;;0.06;100.00
65800;BME280;52544;48.116;11.660;2022-12-10T06:31:39;94361.72;;;0.07;100.00
65800;BME280;52544;48.116;11.660;2022-12-10T06:34:05;94365.06;;;0.09;100.00
65800;BME280;52544;48.116;11.660;2022-12-10T06:36:30;94362.53;;;0.08;100.00
65800;BME280;52544;48.116;11.660;2022-12-10T06:38:57;94358.19;;;0.08;100.00
65800;BME280;52544;48.116;11.660;2022-12-10T06:41:22;94356.50;;;0.07;100.00
65800;BME280;52544;48.116;11.660;2022-12-10T06:43:48;94357.34;;;0.08;100.00
65800;BME280;52544;48.116;11.660;2022-12-10T06:46:16;94359.03;;;0.09;100.00
65800;BME280;52544;48.116;11.660;2022-12-10T06:48:42;94364.97;;;0.11;100.00
65800;BME280;52544;48.116;11.660;2022-12-10T06:51:09;94365.06;;;0.09;100.00
65800;BME280;52544;48.116;11.660;2022-12-10T06:53:36;94363.78;;;0.02;100.00
65800;BME280;52544;48.116;11.660;2022-12-10T06:56:02;94369.94;;;0.01;100.00
65800;BME280;52544;48.116;11.660;2022-12-10T06:58:29;94368.16;;;0.02;100.00
65800;BME280;52544;48.116;11.660;2022-12-10T07:01:06;94363.88;;;0.01;100.00
65800;BME280;52544;48.116;11.660;2022-12-10T07:03:32;94364.59;;;0.03;100.00
65800;BME280;52544;48.116;11.660;2022-12-10T07:05:59;94371.69;;;0.01;100.00
65800;BME280;52544;48.116;11.660;2022-12-10T07:08:24;94371.69;;;0.01;100.00
65800;BME280;52544;48.116;11.660;2022-12-10T07:10:49;94366.56;;;-0.01;100.00
65800;BME280;52544;48.116;11.660;2022-12-10T07:13:15;94366.69;;;-0.03;100.00
65800;BME280;52544;48.116;11.660;2022-12-10T07:15:40;94368.25;;;0.00;100.00
65800;BME280;52544;48.116;11.660;2022-12-10T07:18:06;94373.34;;;0.02;100.00
65800;BME280;52544;48.116;11.660;2022-12-10T07:20:31;94373.34;;;0.02;100.00
65800;BME280;52544;48.116;11.660;2022-12-10T07:22:57;94372.53;;;0.01;100.00
65800;BME280;52544;48.116;11.660;2022-12-10T07:25:22;94366.38;;;0.02;100.00
65800;BME280;52544;48.116;11.660;2022-12-10T07:27:47;94360.47;;;0.00;100.00
65800;BME280;52544;48.116;11.660;2022-12-10T07:30:13;94361.06;;;0.04;100.00
65800;BME280;52544;48.116;11.660;2022-12-10T07:32:38;94360.06;;;0.06;100.00
65800;BME280;52544;48.116;11.660;2022-12-10T07:35:04;94360.78;;;0.08;100.00
65800;BME280;52544;48.116;11.660;2022-12-10T07:37:29;94368.81;;;0.05;100.00
65800;BME280;52544;48.116;11.660;2022-12-10T07:39:55;94374.66;;;-0.06;100.00
65800;BME280;52544;48.116;11.660;2022-12-10T07:42:20;94362.78;;;-0.10;100.00
65800;BME280;52544;48.116;11.660;2022-12-10T07:44:47;94365.38;;;-0.10;100.00
65800;BME280;52544;48.116;11.660;2022-12-10T07:47:13;94363.97;;;-0.01;100.00
65800;BME280;52544;48.116;11.660;2022-12-10T07:49:38;94378.97;;;0.08;100.00
65800;BME280;52544;48.116;11.660;2022-12-10T07:52:04;94380.88;;;0.06;100.00
65800;BME280;52544;48.116;11.660;2022-12-10T07:54:29;94382.63;;;0.06;100.00
65800;BME280;52544;48.116;11.660;2022-12-10T07:56:54;94378.25;;;0.06;100.00
65800;BME280;52544;48.116;11.660;2022-12-10T07:59:20;94365.72;;;0.13;100.00
65800;BME280;52544;48.116;11.660;2022-12-10T08:01:45;94362.91;;;0.16;100.00
65800;BME280;52544;48.116;11.660;2022-12-10T08:04:11;94373.94;;;0.19;100.00
65800;BME280;52544;48.116;11.660;2022-12-10T08:06:36;94371.34;;;0.19;100.00
65800;BME280;52544;48.116;11.660;2022-12-10T08:09:02;94371.16;;;0.22;100.00
65800;BME280;52544;48.116;11.660;2022-12-10T08:11:27;94375.25;;;0.12;100.00
65800;BME280;52544;48.116;11.660;2022-12-10T08:13:54;94379.44;;;0.15;100.00
65800;BME280;52544;48.116;11.660;2022-12-10T08:16:22;94379.56;;;0.13;100.00
65800;BME280;52544;48.116;11.660;2022-12-10T08:18:48;94379.97;;;0.20;100.00
65800;BME280;52544;48.116;11.660;2022-12-10T08:21:16;94375.53;;;0.22;100.00
65800;BME280;52544;48.116;11.660;2022-12-10T08:23:42;94385.19;;;0.20;100.00
65800;BME280;52544;48.116;11.660;2022-12-10T08:26:12;94385.00;;;0.23;100.00
65800;BME280;52544;48.116;11.660;2022-12-10T08:28:38;94383.03;;;0.27;100.00
65800;BME280;52544;48.116;11.660;2022-12-10T08:31:04;94388.78;;;0.32;100.00
65800;BME280;52544;48.116;11.660;2022-12-10T08:33:33;94384.22;;;0.35;100.00
65800;BME280;52544;48.116;11.660;2022-12-10T08:35:59;94385.97;;;0.35;100.00
65800;BME280;52544;48.116;11.660;2022-12-10T08:38:25;94383.91;;;0.40;100.00
65800;BME280;52544;48.116;11.660;2022-12-10T08:40:50;94377.38;;;0.47;100.00
65800;BME280;52544;48.116;11.660;2022-12-10T08:43:16;94387.44;;;0.39;100.00
65800;BME280;52544;48.116;11.660;2022-12-10T08:45:41;94384.94;;;0.37;100.00
65800;BME280;52544;48.116;11.660;2022-12-10T08:48:07;94388.28;;;0.39;100.00
65800;BME280;52544;48.116;11.660;2022-12-10T08:50:32;94391.59;;;0.41;100.00
65800;BME280;52544;48.116;11.660;2022-12-10T08:52:58;94404.31;;;0.46;100.00
65800;BME280;52544;48.116;11.660;2022-12-10T08:55:23;94399.53;;;0.40;100.00
65800;BME280;52544;48.116;11.660;2022-12-10T08:57:48;94389.94;;;0.40;100.00
65800;BME280;52544;48.116;11.660;2022-12-10T09:00:14;94393.78;;;0.35;100.00
65800;BME280;52544;48.116;11.660;2022-12-10T09:02:40;94397.31;;;0.34;100.00
65800;BME280;52544;48.116;11.660;2022-12-10T09:05:06;94395.44;;;0.36;100.00
65800;BME280;52544;48.116;11.660;2022-12-10T09:07:31;94398.44;;;0.30;100.00
65800;BME280;52544;48.116;11.660;2022-12-10T09:09:56;94396.69;;;0.30;100.00
65800;BME280;52544;48.116;11.660;2022-12-10T09:12:23;94402.81;;;0.29;100.00
65800;BME280;52544;48.116;11.660;2022-12-10T09:14:48;94413.13;;;0.31;100.00
65800;BME280;52544;48.116;11.660;2022-12-10T09:17:14;94419.16;;;0.31;100.00
65800;BME280;52544;48.116;11.660;2022-12-10T09:19:39;94413.03;;;0.32;100.00
65800;BME280;52544;48.116;11.660;2022-12-10T09:22:04;94421.00;;;0.29;100.00
65800;BME280;52544;48.116;11.660;2022-12-10T09:24:30;94424.44;;;0.30;100.00
65800;BME280;52544;48.116;11.660;2022-12-10T09:26:55;94423.00;;;0.26;100.00
65800;BME280;52544;48.116;11.660;2022-12-10T09:29:20;94418.72;;;0.24;100.00
65800;BME280;52544;48.116;11.660;2022-12-10T09:31:50;94424.84;;;0.23;100.00
65800;BME280;52544;48.116;11.660;2022-12-10T09:34:15;94421.72;;;0.18;100.00
65800;BME280;52544;48.116;11.660;2022-12-10T09:36:40;94423.38;;;0.19;100.00
65800;BME280;52544;48.116;11.660;2022-12-10T09:39:06;94413.16;;;0.16;100.00
65800;BME280;52544;48.116;11.660;2022-12-10T09:47:16;94418.00;;;0.22;100.00
65800;BME280;52544;48.116;11.660;2022-12-10T09:52:29;94425.78;;;0.22;100.00
65800;BME280;52544;48.116;11.660;2022-12-10T09:55:02;94425.03;;;0.20;100.00
65800;BME280;52544;48.116;11.660;2022-12-10T09:57:33;94419.13;;;0.18;100.00
65800;BME280;52544;48.116;11.660;2022-12-10T10:00:04;94423.50;;;0.18;100.00
65800;BME280;52544;48.116;11.660;2022-12-10T10:02:32;94418.81;;;0.23;100.00
65800;BME280;52544;48.116;11.660;2022-12-10T10:07:45;94413.63;;;0.23;100.00
65800;BME280;52544;48.116;11.660;2022-12-10T10:10:28;94416.09;;;0.24;100.00
65800;BME280;52544;48.116;11.660;2022-12-10T10:12:58;94417.81;;;0.26;100.00
65800;BME280;52544;48.116;11.660;2022-12-10T10:15:31;94417.06;;;0.23;100.00
65800;BME280;52544;48.116;11.660;2022-12-10T10:18:02;94422.38;;;0.22;100.00
65800;BME280;52544;48.116;11.660;2022-12-10T10:20:30;94410.25;;;0.21;100.00
65800;BME280;52544;48.116;11.660;2022-12-10T10:22:57;94408.31;;;0.24;100.00
65800;BME280;52544;48.116;11.660;2022-12-10T10:25:24;94405.69;;;0.24;100.00
65800;BME280;52544;48.116;11.660;2022-12-10T10:27:50;94411.38;;;0.31;100.00
65800;BME280;52544;48.116;11.660;2022-12-10T10:30:18;94413.03;;;0.32;100.00
65800;BME280;52544;48.116;11.660;2022-12-10T10:32:52;94411.06;;;0.36;100.00
65800;BME280;52544;48.116;11.660;2022-12-10T10:35:30;94414.59;;;0.35;100.00
65800;BME280;52544;48.116;11.660;2022-12-10T10:38:06;94414.31;;;0.39;100.00
65800;BME280;52544;48.116;11.660;2022-12-10T10:40:45;94417.22;;;0.35;100.00
65800;BME280;52544;48.116;11.660;2022-12-10T10:43:25;94416.81;;;0.41;100.00
65800;BME280;52544;48.116;11.660;2022-12-10T10:45:59;94404.91;;;0.37;100.00
65800;BME280;52544;48.116;11.660;2022-12-10T10:48:26;94405.88;;;0.36;100.00
65800;BME280;52544;48.116;11.660;2022-12-10T10:56:25;94400.88;;;0.45;100.00
65800;BME280;52544;48.116;11.660;2022-12-10T10:58:58;94386.66;;;0.51;100.00
65800;BME280;52544;48.116;11.660;2022-12-10T11:01:42;94390.63;;;0.57;100.00
65800;BME280;52544;48.116;11.660;2022-12-10T11:04:09;94394.78;;;0.59;100.00
65800;BME280;52544;48.116;11.660;2022-12-10T11:06:34;94385.22;;;0.60;100.00
65800;BME280;52544;48.116;11.660;2022-12-10T11:09:00;94383.53;;;0.59;100.00
65800;BME280;52544;48.116;11.660;2022-12-10T11:11:39;94385.94;;;0.62;100.00
65800;BME280;52544;48.116;11.660;2022-12-10T11:19:42;94383.03;;;0.66;100.00
65800;BME280;52544;48.116;11.660;2022-12-10T11:22:20;94384.09;;;0.64;100.00
65800;BME280;52544;48.116;11.660;2022-12-10T11:24:47;94376.88;;;0.67;100.00
65800;BME280;52544;48.116;11.660;2022-12-10T11:27:24;94384.69;;;0.67;100.00
65800;BME280;52544;48.116;11.660;2022-12-10T11:30:02;94382.09;;;0.67;100.00
65800;BME280;52544;48.116;11.660;2022-12-10T11:35:12;94392.84;;;0.75;100.00
65800;BME280;52544;48.116;11.660;2022-12-10T11:40:24;94385.38;;;0.84;100.00
65800;BME280;52544;48.116;11.660;2022-12-10T11:43:05;94392.34;;;0.83;100.00
65800;BME280;52544;48.116;11.660;2022-12-10T11:51:13;94375.03;;;0.69;100.00
65800;BME280;52544;48.116;11.660;2022-12-10T11:54:07;94379.63;;;0.79;100.00
65800;BME280;52544;48.116;11.660;2022-12-10T11:56:43;94382.22;;;0.79;100.00
65800;BME280;52544;48.116;11.660;2022-12-10T12:01:57;94386.72;;;0.77;100.00
65800;BME280;52544;48.116;11.660;2022-12-10T12:04:40;94380.25;;;0.69;100.00
65800;BME280;52544;48.116;11.660;2022-12-10T12:10:07;94384.31;;;0.73;100.00
65800;BME280;52544;48.116;11.660;2022-12-10T12:12:59;94384.50;;;0.70;100.00
65800;BME280;52544;48.116;11.660;2022-12-10T12:15:32;94387.75;;;0.74;100.00
65800;BME280;52544;48.116;11.660;2022-12-10T12:18:17;94390.25;;;0.75;100.00
65800;BME280;52544;48.116;11.660;2022-12-10T12:21:01;94395.03;;;0.69;100.00
65800;BME280;52544;48.116;11.660;2022-12-10T12:26:13;94396.81;;;0.68;100.00
65800;BME280;52544;48.116;11.660;2022-12-10T12:31:47;94399.78;;;0.62;100.00
65800;BME280;52544;48.116;11.660;2022-12-10T12:34:25;94397.50;;;0.58;100.00
65800;BME280;52544;48.116;11.660;2022-12-10T12:36:52;94409.16;;;0.52;100.00
65800;BME280;52544;48.116;11.660;2022-12-10T12:39:57;94400.00;;;0.59;100.00
65800;BME280;52544;48.116;11.660;2022-12-10T12:45:20;94413.72;;;0.48;100.00
65800;BME280;52544;48.116;11.660;2022-12-10T12:48:09;94422.34;;;0.49;100.00
65800;BME280;52544;48.116;11.660;2022-12-10T12:50:48;94424.00;;;0.50;100.00
65800;BME280;52544;48.116;11.660;2022-12-10T12:53:18;94418.63;;;0.53;100.00
65800;BME280;52544;48.116;11.660;2022-12-10T12:55:50;94422.00;;;0.41;100.00
65800;BME280;52544;48.116;11.660;2022-12-10T12:58:31;94421.06;;;0.42;100.00
65800;BME280;52544;48.116;11.660;2022-12-10T13:01:18;94426.38;;;0.40;100.00
65800;BME280;52544;48.116;11.660;2022-12-10T13:03:45;94432.03;;;0.47;100.00
65800;BME280;52544;48.116;11.660;2022-12-10T13:06:18;94432.13;;;0.45;100.00
65800;BME280;52544;48.116;11.660;2022-12-10T13:09:30;94426.19;;;0.43;100.00
65800;BME280;52544;48.116;11.660;2022-12-10T13:11:35;94430.59;;;0.29;100.00
65800;BME280;52544;48.116;11.660;2022-12-10T13:14:10;94437.81;;;0.38;100.00
65800;BME280;52544;48.116;11.660;2022-12-10T13:22:02;94433.53;;;0.37;100.00
65800;BME280;52544;48.116;11.660;2022-12-10T13:40:22;94472.69;;;0.35;100.00
65800;BME280;52544;48.116;11.660;2022-12-10T13:42:57;94478.44;;;0.40;100.00
65800;BME280;52544;48.116;11.660;2022-12-10T13:45:41;94479.47;;;0.38;100.00
65800;BME280;52544;48.116;11.660;2022-12-10T13:48:25;94486.53;;;0.36;100.00
65800;BME280;52544;48.116;11.660;2022-12-10T13:51:05;94489.03;;;0.37;100.00
65800;BME280;52544;48.116;11.660;2022-12-10T13:56:29;94498.44;;;0.40;100.00
65800;BME280;52544;48.116;11.660;2022-12-10T13:59:21;94492.41;;;0.39;100.00
65800;BME280;52544;48.116;11.660;2022-12-10T14:07:11;94505.69;;;0.35;100.00
65800;BME280;52544;48.116;11.660;2022-12-10T14:09:57;94509.78;;;0.39;100.00
65800;BME280;52544;48.116;11.660;2022-12-10T14:12:56;94502.16;;;0.36;100.00
65800;BME280;52544;48.116;11.660;2022-12-10T14:15:23;94510.25;;;0.31;100.00
65800;BME280;52544;48.116;11.660;2022-12-10T14:17:52;94514.69;;;0.29;100.00
65800;BME280;52544;48.116;11.660;2022-12-10T14:20:23;94520.47;;;0.34;100.00
65800;BME280;52544;48.116;11.660;2022-12-10T14:22:52;94525.31;;;0.26;100.00
65800;BME280;52544;48.116;11.660;2022-12-10T14:25:21;94520.31;;;0.23;100.00
65800;BME280;52544;48.116;11.660;2022-12-10T14:27:48;94531.44;;;0.25;100.00
65800;BME280;52544;48.116;11.660;2022-12-10T14:32:45;94527.72;;;0.29;100.00
65800;BME280;52544;48.116;11.660;2022-12-10T14:35:20;94533.13;;;0.26;100.00
65800;BME280;52544;48.116;11.660;2022-12-10T14:37:48;94535.91;;;0.23;100.00
65800;BME280;52544;48.116;11.660;2022-12-10T14:40:21;94534.78;;;0.27;100.00